Time;durP1;ratioP1;P1;durP2;ratioP2;P2;SDS_P1;SDS_P2;PMS_P1;PMS_P2;Temp;Humidity;BMP_temperature;BMP_pressure;BME280_temperature;BME280_humidity;BME280_pressure;Samples;Min_cycle;Max_cycle;Signal;HPM_P1;HPM_P2
2022/03/07 00:01:49;;;;;;;2.35;0.60;;;-2.50;99.90;;;;;;5026297;28;20183;-76
2022/03/07 00:04:17;;;;;;;1.27;0.50;;;-2.50;99.90;;;;;;5019271;28;20029;-76
2022/03/07 00:06:43;;;;;;;1.60;0.60;;;-2.40;99.90;;;;;;5014338;28;20041;-76
2022/03/07 00:09:09;;;;;;;2.03;0.60;;;-2.50;99.90;;;;;;5020212;28;20120;-76
2022/03/07 00:11:35;;;;;;;3.20;0.40;;;-2.50;99.90;;;;;;5003912;28;20112;-76
2022/03/07 00:14:01;;;;;;;1.27;0.43;;;-2.40;99.90;;;;;;5020328;28;20045;-76
2022/03/07 00:16:28;;;;;;;2.50;0.50;;;-2.40;99.90;;;;;;5035878;28;20033;-76
2022/03/07 00:18:53;;;;;;;2.30;0.60;;;-2.50;99.90;;;;;;5003635;28;20036;-76
2022/03/07 00:21:20;;;;;;;1.45;0.60;;;-2.50;99.90;;;;;;5004281;28;20037;-76
2022/03/07 00:23:46;;;;;;;1.95;0.60;;;-2.50;99.90;;;;;;5014929;28;20037;-76
2022/03/07 00:26:12;;;;;;;2.50;0.70;;;-2.50;99.90;;;;;;5019628;28;20119;-77
2022/03/07 00:28:38;;;;;;;2.22;0.60;;;-2.60;99.90;;;;;;4994207;28;20124;-76
2022/03/07 00:31:04;;;;;;;2.13;0.60;;;-2.60;99.90;;;;;;5019592;28;20029;-76
2022/03/07 00:33:30;;;;;;;1.45;0.50;;;-2.70;99.90;;;;;;5036044;28;20445;-76
2022/03/07 00:35:56;;;;;;;1.45;0.60;;;-2.80;99.90;;;;;;5018835;28;20033;-76
2022/03/07 00:38:22;;;;;;;2.90;0.52;;;-2.80;99.90;;;;;;5018477;28;20507;-76
2022/03/07 00:40:48;;;;;;;2.60;0.75;;;-2.80;99.90;;;;;;5026625;28;20042;-76
2022/03/07 00:43:14;;;;;;;2.38;0.60;;;-2.80;99.90;;;;;;5019559;28;20041;-76
2022/03/07 00:45:39;;;;;;;1.92;0.60;;;-2.80;99.90;;;;;;5014219;28;20052;-76
2022/03/07 00:48:05;;;;;;;1.95;0.60;;;-2.80;99.90;;;;;;5012139;28;20045;-76
2022/03/07 00:50:32;;;;;;;2.50;0.80;;;-2.80;99.90;;;;;;5003124;28;20053;-76
2022/03/07 00:52:58;;;;;;;1.40;0.57;;;-2.80;99.90;;;;;;5012306;28;20030;-76
2022/03/07 00:55:25;;;;;;;1.75;0.73;;;-2.80;99.90;;;;;;5019514;28;20091;-76
2022/03/07 00:57:50;;;;;;;1.60;0.73;;;-2.90;99.90;;;;;;4992040;28;20503;-76
2022/03/07 01:00:16;;;;;;;1.98;0.70;;;-3.00;99.90;;;;;;5018763;28;20035;-77
2022/03/07 01:02:42;;;;;;;2.47;0.60;;;-3.10;99.90;;;;;;5018604;28;20041;-76
2022/03/07 01:05:08;;;;;;;1.83;0.65;;;-3.20;99.90;;;;;;5019518;28;20037;-77
2022/03/07 01:07:34;;;;;;;2.97;0.70;;;-3.10;99.90;;;;;;5017876;28;20061;-76
2022/03/07 01:10:01;;;;;;;2.55;0.60;;;-3.20;99.90;;;;;;5025780;28;20124;-76
2022/03/07 01:12:26;;;;;;;1.60;0.55;;;-3.20;99.90;;;;;;5019281;28;20037;-76
2022/03/07 01:14:52;;;;;;;2.08;0.70;;;-3.10;99.90;;;;;;5012993;28;20586;-76
2022/03/07 01:17:18;;;;;;;1.75;0.75;;;-3.10;99.90;;;;;;5034351;28;20037;-76
2022/03/07 01:19:44;;;;;;;2.05;0.60;;;-3.20;99.90;;;;;;5003302;28;20033;-76
2022/03/07 01:22:09;;;;;;;2.17;0.73;;;-3.20;99.90;;;;;;5008869;28;20079;-76
2022/03/07 01:24:36;;;;;;;1.88;0.60;;;-3.20;99.90;;;;;;5019061;28;20159;-76
2022/03/07 01:27:03;;;;;;;1.50;0.57;;;-3.30;99.90;;;;;;5018185;28;20103;-75
2022/03/07 01:29:29;;;;;;;2.95;0.50;;;-3.30;99.90;;;;;;5034576;28;20397;-76
2022/03/07 01:31:54;;;;;;;1.70;0.52;;;-3.10;99.90;;;;;;5001705;28;20029;-76
2022/03/07 01:34:20;;;;;;;2.35;0.73;;;-3.10;99.90;;;;;;5024740;28;20164;-76
2022/03/07 01:36:46;;;;;;;2.28;0.80;;;-3.20;99.90;;;;;;5002456;28;20033;-76
2022/03/07 01:39:11;;;;;;;2.60;0.95;;;-3.20;99.90;;;;;;5018403;28;20029;-76
2022/03/07 01:41:37;;;;;;;1.95;0.70;;;-3.30;99.90;;;;;;5017166;28;20033;-76
2022/03/07 01:44:03;;;;;;;1.50;0.50;;;-3.40;99.90;;;;;;5012762;28;20033;-77
2022/03/07 01:46:31;;;;;;;1.98;0.60;;;-3.50;99.90;;;;;;5016212;28;20123;-76
2022/03/07 01:48:56;;;;;;;1.48;0.60;;;-3.40;99.90;;;;;;5019882;28;20030;-76
2022/03/07 01:51:23;;;;;;;2.05;0.70;;;-3.40;99.90;;;;;;5002352;28;20413;-76
2022/03/07 01:53:49;;;;;;;2.45;0.77;;;-3.40;99.90;;;;;;5013042;28;20425;-76
2022/03/07 01:56:17;;;;;;;1.98;1.02;;;-3.40;99.90;;;;;;5016886;28;20072;-76
2022/03/07 01:58:42;;;;;;;1.40;0.57;;;-3.30;99.90;;;;;;5011424;28;20509;-76
2022/03/07 02:01:09;;;;;;;2.03;0.98;;;-3.30;99.90;;;;;;5018513;28;20120;-76
2022/03/07 02:03:34;;;;;;;1.30;0.50;;;-3.40;99.90;;;;;;5011329;28;20051;-76
2022/03/07 02:06:00;;;;;;;1.45;0.40;;;-3.40;99.90;;;;;;5019202;28;20046;-76
2022/03/07 02:08:26;;;;;;;1.55;0.73;;;-3.40;99.90;;;;;;5011061;28;20043;-75
2022/03/07 02:11:02;;;;;;;1.17;0.60;;;-3.50;99.90;;;;;;5033560;28;20056;-76
2022/03/07 02:13:31;;;;;;;2.08;0.65;;;-3.50;99.90;;;;;;5016217;28;20029;-75
2022/03/07 02:16:09;;;;;;;1.88;0.60;;;-3.60;99.90;;;;;;5018121;28;20037;-76
2022/03/07 02:18:34;;;;;;;1.73;0.50;;;-3.60;99.90;;;;;;5018622;28;20120;-76
2022/03/07 02:21:16;;;;;;;1.55;0.52;;;-3.50;99.90;;;;;;5017896;28;20895;-75
2022/03/07 02:23:51;;;;;;;2.53;0.70;;;-3.50;99.90;;;;;;5034195;28;20028;-76
2022/03/07 02:26:18;;;;;;;2.15;0.70;;;-3.50;99.90;;;;;;5031697;28;20041;-76
2022/03/07 02:28:47;;;;;;;1.70;0.60;;;-3.60;99.90;;;;;;5033671;28;20116;-76
2022/03/07 02:31:19;;;;;;;1.05;0.40;;;-3.70;99.90;;;;;;5033761;28;20030;-75
2022/03/07 02:33:47;;;;;;;1.95;0.50;;;-3.70;99.90;;;;;;5017529;28;20452;-77
2022/03/07 02:36:15;;;;;;;1.73;0.60;;;-3.60;99.90;;;;;;5001471;28;20039;-76
2022/03/07 02:38:41;;;;;;;1.75;0.57;;;-3.50;99.90;;;;;;5023494;28;20025;-76
2022/03/07 02:41:06;;;;;;;1.67;0.60;;;-3.50;99.90;;;;;;5010443;28;20385;-76
2022/03/07 02:43:32;;;;;;;1.70;0.60;;;-3.60;99.90;;;;;;5000877;28;20025;-76
2022/03/07 02:45:58;;;;;;;1.50;0.55;;;-3.50;99.90;;;;;;5017900;28;20037;-76
2022/03/07 02:48:25;;;;;;;2.13;0.60;;;-3.60;99.90;;;;;;5011084;28;20358;-76
2022/03/07 02:50:51;;;;;;;2.45;1.00;;;-3.60;99.90;;;;;;5000934;28;20391;-76
2022/03/07 02:53:17;;;;;;;1.50;0.60;;;-3.60;99.90;;;;;;5015633;28;20033;-76
2022/03/07 02:55:43;;;;;;;1.70;0.60;;;-3.50;99.90;;;;;;5016680;28;20073;-76
2022/03/07 02:58:09;;;;;;;2.92;0.73;;;-3.60;99.90;;;;;;5016195;28;20091;-75
2022/03/07 03:00:35;;;;;;;3.35;0.70;;;-3.70;99.90;;;;;;5009986;28;20053;-75
2022/03/07 03:03:01;;;;;;;2.53;0.80;;;-3.70;99.90;;;;;;5016664;28;20057;-76
2022/03/07 03:05:26;;;;;;;2.47;0.68;;;-3.70;99.90;;;;;;5017996;28;20127;-76
2022/03/07 03:07:52;;;;;;;1.48;0.50;;;-3.70;99.90;;;;;;5018905;28;20052;-76
2022/03/07 03:10:19;;;;;;;1.70;0.60;;;-3.70;99.90;;;;;;5015608;28;20034;-75
2022/03/07 03:12:46;;;;;;;2.00;0.60;;;-3.70;99.90;;;;;;5000173;28;20501;-76
2022/03/07 03:15:12;;;;;;;3.25;0.60;;;-3.70;99.90;;;;;;5018353;28;20033;-76
2022/03/07 03:17:40;;;;;;;1.40;0.50;;;-3.70;99.90;;;;;;5016593;28;20080;-76
2022/03/07 03:20:06;;;;;;;1.20;0.40;;;-3.90;99.90;;;;;;4994729;28;20029;-76
2022/03/07 03:22:32;;;;;;;1.42;0.50;;;-3.80;99.90;;;;;;5016817;28;20037;-76
2022/03/07 03:24:58;;;;;;;2.15;0.60;;;-3.90;99.90;;;;;;5011243;28;20030;-75
2022/03/07 03:27:23;;;;;;;1.90;0.70;;;-3.90;99.90;;;;;;5004569;28;20052;-76
2022/03/07 03:29:49;;;;;;;2.17;0.65;;;-3.90;99.90;;;;;;5022142;28;20033;-76
2022/03/07 03:32:15;;;;;;;2.47;0.75;;;-3.90;99.90;;;;;;5022303;28;20041;-79
2022/03/07 03:34:41;;;;;;;3.63;1.23;;;-3.90;99.90;;;;;;5022029;28;20671;-75
2022/03/07 03:37:07;;;;;;;3.50;1.00;;;-4.00;99.90;;;;;;5013366;28;20207;-75
2022/03/07 03:39:33;;;;;;;2.75;1.20;;;-3.90;99.90;;;;;;5020464;28;20025;-76
2022/03/07 03:41:58;;;;;;;5.05;1.30;;;-3.80;99.90;;;;;;5020400;28;20735;-76
2022/03/07 03:44:24;;;;;;;3.63;0.90;;;-3.90;99.90;;;;;;5003243;28;20440;-76
2022/03/07 03:46:49;;;;;;;3.13;0.90;;;-3.90;99.90;;;;;;5014581;28;20060;-76
2022/03/07 03:49:15;;;;;;;4.07;1.08;;;-4.00;99.90;;;;;;5019720;28;20030;-75
2022/03/07 03:51:41;;;;;;;2.33;0.90;;;-3.90;99.90;;;;;;5013797;28;20138;-75
2022/03/07 03:54:07;;;;;;;3.60;0.95;;;-4.00;99.90;;;;;;5022151;28;20041;-75
2022/03/07 03:56:32;;;;;;;5.82;1.00;;;-4.00;99.90;;;;;;5013026;28;20029;-75
2022/03/07 03:58:58;;;;;;;3.83;1.00;;;-4.20;99.90;;;;;;5026220;28;20029;-75
2022/03/07 04:01:24;;;;;;;3.00;1.00;;;-4.10;99.90;;;;;;5036377;28;20032;-76
2022/03/07 04:03:49;;;;;;;3.47;1.05;;;-4.20;99.90;;;;;;5021004;28;20390;-76
2022/03/07 04:06:15;;;;;;;2.40;0.82;;;-4.20;99.90;;;;;;5001994;28;20041;-76
2022/03/07 04:08:51;;;;;;;2.45;0.77;;;-4.20;99.90;;;;;;5004425;28;20057;-77
2022/03/07 04:11:22;;;;;;;3.55;1.08;;;-4.30;99.90;;;;;;5014808;28;20064;-75
2022/03/07 04:13:48;;;;;;;2.83;0.85;;;-4.40;99.90;;;;;;5014355;28;20076;-76
2022/03/07 04:16:15;;;;;;;3.05;0.85;;;-4.20;99.90;;;;;;5021235;28;20033;-75
2022/03/07 04:18:40;;;;;;;1.95;0.63;;;-4.20;99.90;;;;;;5020287;28;20034;-76
2022/03/07 04:21:06;;;;;;;2.53;0.80;;;-4.20;99.90;;;;;;5020703;28;20025;-76
2022/03/07 04:23:31;;;;;;;2.08;0.77;;;-4.10;99.90;;;;;;5021097;28;20541;-77
2022/03/07 04:25:57;;;;;;;3.13;0.82;;;-4.20;99.90;;;;;;5020208;28;20040;-76
2022/03/07 04:28:23;;;;;;;2.53;0.73;;;-4.20;99.90;;;;;;5019645;28;20925;-77
2022/03/07 04:30:48;;;;;;;2.17;0.82;;;-4.20;99.90;;;;;;5020721;28;20120;-76
2022/03/07 04:33:14;;;;;;;2.90;0.82;;;-4.20;99.90;;;;;;5020767;28;20029;-78
2022/03/07 04:35:40;;;;;;;3.05;0.90;;;-4.30;99.90;;;;;;5025257;28;20056;-76
2022/03/07 04:38:05;;;;;;;3.67;1.00;;;-4.30;99.90;;;;;;5035355;28;20033;-76
2022/03/07 04:40:31;;;;;;;2.83;0.85;;;-4.40;99.90;;;;;;5021375;28;20038;-76
2022/03/07 04:42:56;;;;;;;2.60;0.90;;;-4.40;99.90;;;;;;4997298;28;20053;-75
2022/03/07 04:45:23;;;;;;;2.83;0.85;;;-4.50;99.90;;;;;;5007763;28;20036;-76
2022/03/07 04:47:49;;;;;;;1.73;0.70;;;-4.50;99.90;;;;;;4996081;28;20048;-75
2022/03/07 04:50:15;;;;;;;2.03;0.60;;;-4.40;99.90;;;;;;5003729;28;20687;-76
2022/03/07 04:52:42;;;;;;;3.92;0.68;;;-4.10;99.90;;;;;;5012248;28;20560;-77
2022/03/07 04:55:10;;;;;;;3.03;0.85;;;-4.10;99.90;;;;;;5012262;28;20060;-77
2022/03/07 04:57:36;;;;;;;2.70;0.80;;;-4.10;99.90;;;;;;4996948;28;20037;-76
2022/03/07 05:00:04;;;;;;;2.42;0.70;;;-4.20;99.90;;;;;;5018205;28;20068;-76
2022/03/07 05:02:30;;;;;;;2.75;0.70;;;-4.10;99.90;;;;;;5011854;28;20033;-76
2022/03/07 05:04:55;;;;;;;2.63;0.90;;;-4.30;99.90;;;;;;5003179;28;20034;-76
2022/03/07 05:07:21;;;;;;;2.03;0.80;;;-4.30;99.90;;;;;;5019882;28;20070;-75
2022/03/07 05:09:47;;;;;;;3.38;1.23;;;-4.30;99.90;;;;;;5002806;28;20466;-75
2022/03/07 05:12:13;;;;;;;3.90;0.90;;;-4.30;99.90;;;;;;5033817;28;20038;-75
2022/03/07 05:14:38;;;;;;;1.80;0.80;;;-4.40;99.90;;;;;;5019661;28;20034;-75
2022/03/07 05:17:04;;;;;;;2.65;0.70;;;-4.20;99.90;;;;;;5018789;28;20128;-76
2022/03/07 05:19:30;;;;;;;2.40;1.10;;;-4.30;99.90;;;;;;5016964;28;20041;-76
2022/03/07 05:21:55;;;;;;;3.72;0.90;;;-4.30;99.90;;;;;;5023989;28;20033;-76
2022/03/07 05:24:21;;;;;;;2.45;0.95;;;-4.40;99.90;;;;;;5033772;28;20037;-76
2022/03/07 05:26:47;;;;;;;3.33;1.00;;;-4.40;99.90;;;;;;5019579;28;20521;-76
2022/03/07 05:29:12;;;;;;;3.03;0.98;;;-4.50;99.90;;;;;;5019642;28;20021;-76
2022/03/07 05:31:38;;;;;;;3.92;1.00;;;-4.20;99.90;;;;;;5018191;28;20061;-75
2022/03/07 05:34:03;;;;;;;3.80;1.13;;;-4.30;99.90;;;;;;5015542;28;20029;-76
2022/03/07 05:36:29;;;;;;;3.35;1.10;;;-4.30;99.90;;;;;;5018576;28;20033;-75
2022/03/07 05:38:54;;;;;;;6.65;1.45;;;-4.20;99.90;;;;;;5010520;28;20191;-75
2022/03/07 05:41:20;;;;;;;2.80;0.93;;;-4.40;99.90;;;;;;5001494;28;20373;-75
2022/03/07 05:43:45;;;;;;;2.60;0.80;;;-4.40;99.90;;;;;;5001412;28;20037;-75
2022/03/07 05:46:11;;;;;;;4.22;1.10;;;-4.40;99.90;;;;;;5016262;28;20067;-76
2022/03/07 05:48:37;;;;;;;3.35;0.90;;;-4.50;99.90;;;;;;5033630;28;20045;-76
2022/03/07 05:51:02;;;;;;;2.10;0.88;;;-4.60;99.90;;;;;;4992121;28;20041;-75
2022/03/07 05:53:28;;;;;;;3.15;1.15;;;-4.30;99.90;;;;;;5032191;28;20065;-76
2022/03/07 05:55:54;;;;;;;3.58;1.35;;;-4.60;99.90;;;;;;5001339;28;20017;-76
2022/03/07 05:58:19;;;;;;;2.90;1.00;;;-4.40;99.90;;;;;;5033812;28;20033;-75
2022/03/07 06:00:45;;;;;;;2.13;0.93;;;-4.40;99.90;;;;;;5018735;28;20029;-76
2022/03/07 06:03:11;;;;;;;3.65;1.10;;;-4.50;99.90;;;;;;5018658;28;20025;-76
2022/03/07 06:05:37;;;;;;;2.45;0.93;;;-4.40;99.90;;;;;;5017951;28;20053;-75
2022/03/07 06:08:05;;;;;;;3.60;1.25;;;-4.50;99.90;;;;;;5016553;28;20561;-76
2022/03/07 06:10:31;;;;;;;4.07;1.30;;;-4.40;99.90;;;;;;4995303;28;20026;-75
2022/03/07 06:12:57;;;;;;;3.72;1.55;;;-4.40;99.90;;;;;;5017531;28;20462;-75
2022/03/07 06:15:23;;;;;;;3.80;1.23;;;-4.50;99.90;;;;;;5017293;28;20029;-75
2022/03/07 06:17:54;;;;;;;3.80;1.67;;;-4.60;99.90;;;;;;4995193;28;20036;-76
2022/03/07 06:20:21;;;;;;;3.63;1.58;;;-4.60;99.90;;;;;;5016055;28;20224;-76
2022/03/07 06:22:48;;;;;;;3.75;1.02;;;-4.60;99.90;;;;;;5010745;28;20079;-76
2022/03/07 06:25:14;;;;;;;3.40;1.30;;;-4.70;99.90;;;;;;5017882;28;20052;-76
2022/03/07 06:27:39;;;;;;;3.53;1.38;;;-4.40;99.90;;;;;;5017754;28;20132;-76
2022/03/07 06:30:05;;;;;;;5.57;1.45;;;-4.20;99.90;;;;;;5000940;28;20128;-76
2022/03/07 06:32:31;;;;;;;5.05;1.40;;;-4.40;99.90;;;;;;5017393;28;20139;-76
2022/03/07 06:34:57;;;;;;;8.82;1.42;;;-4.30;99.90;;;;;;4988184;28;20198;-75
2022/03/07 06:37:24;;;;;;;4.45;1.50;;;-4.40;99.90;;;;;;5020294;28;20124;-75
2022/03/07 06:39:49;;;;;;;3.33;1.50;;;-4.50;99.90;;;;;;4994366;28;20039;-75
2022/03/07 06:42:15;;;;;;;3.40;1.13;;;-4.30;99.90;;;;;;5017365;28;20041;-76
2022/03/07 06:44:40;;;;;;;3.05;1.23;;;-4.30;99.90;;;;;;5010461;28;20026;-75
2022/03/07 06:47:09;;;;;;;3.58;1.15;;;-4.40;99.90;;;;;;5010166;28;20057;-76
2022/03/07 06:49:35;;;;;;;4.97;1.02;;;-4.20;99.90;;;;;;4999869;28;20048;-75
2022/03/07 06:52:02;;;;;;;3.20;1.27;;;-4.10;99.90;;;;;;5031364;28;20025;-76
2022/03/07 06:54:28;;;;;;;3.72;1.23;;;-4.00;99.90;;;;;;4997035;28;20478;-76
2022/03/07 06:56:54;;;;;;;3.00;1.00;;;-3.90;99.90;;;;;;5013981;28;20037;-75
2022/03/07 06:59:20;;;;;;;4.93;1.20;;;-3.90;99.90;;;;;;5008326;28;20034;-75
2022/03/07 07:01:46;;;;;;;3.50;0.98;;;-3.70;99.90;;;;;;5016848;28;20488;-75
2022/03/07 07:04:11;;;;;;;3.50;0.85;;;-3.50;99.90;;;;;;5017283;28;20140;-76
2022/03/07 07:06:37;;;;;;;3.92;1.48;;;-3.50;99.90;;;;;;5022176;28;20045;-76
2022/03/07 07:09:03;;;;;;;3.95;1.40;;;-3.20;99.90;;;;;;5009382;28;20359;-76
2022/03/07 07:11:29;;;;;;;3.10;1.02;;;-3.00;99.90;;;;;;5010487;28;20037;-76
2022/03/07 07:13:54;;;;;;;3.25;1.10;;;-3.00;99.90;;;;;;5016982;28;20391;-75
2022/03/07 07:16:20;;;;;;;3.55;1.17;;;-2.80;99.90;;;;;;5032105;28;20040;-76
2022/03/07 07:18:46;;;;;;;3.90;1.48;;;-2.60;99.90;;;;;;5015955;28;20351;-75
2022/03/07 07:21:11;;;;;;;3.28;1.05;;;-2.50;99.90;;;;;;5016363;28;20474;-76
2022/03/07 07:23:37;;;;;;;3.35;1.40;;;-2.40;99.90;;;;;;5032782;28;20044;-76
2022/03/07 07:26:04;;;;;;;5.07;1.35;;;-2.30;99.90;;;;;;5014648;28;20120;-76
2022/03/07 07:28:29;;;;;;;2.40;1.20;;;-2.10;99.90;;;;;;5017296;28;20288;-76
2022/03/07 07:30:55;;;;;;;3.00;1.10;;;-2.20;99.90;;;;;;5016329;28;20121;-76
2022/03/07 07:33:21;;;;;;;2.78;0.80;;;-2.00;99.90;;;;;;5008419;28;20039;-76
2022/03/07 07:35:46;;;;;;;2.53;1.10;;;-2.20;99.90;;;;;;5032177;28;20034;-76
2022/03/07 07:38:13;;;;;;;4.18;1.33;;;-2.20;99.90;;;;;;4990888;28;20033;-76
2022/03/07 07:40:39;;;;;;;3.38;1.20;;;-2.20;99.90;;;;;;5016697;28;20071;-76
2022/03/07 07:43:04;;;;;;;2.95;1.20;;;-2.10;99.90;;;;;;5001157;28;20041;-76
2022/03/07 07:45:30;;;;;;;3.97;1.50;;;-1.90;99.90;;;;;;5014846;28;20040;-76
2022/03/07 07:47:58;;;;;;;3.15;1.25;;;-2.10;99.90;;;;;;5010138;28;20033;-76
2022/03/07 07:50:23;;;;;;;3.50;1.30;;;-2.00;99.90;;;;;;5009496;28;20080;-76
2022/03/07 07:52:49;;;;;;;3.20;1.02;;;-2.00;99.90;;;;;;5008571;28;20030;-76
2022/03/07 07:55:15;;;;;;;2.88;1.40;;;-1.80;99.90;;;;;;5016994;28;20184;-76
2022/03/07 07:57:40;;;;;;;2.83;1.10;;;-1.70;99.90;;;;;;5017755;28;20508;-76
2022/03/07 08:00:08;;;;;;;3.30;1.40;;;-1.50;99.90;;;;;;5000069;28;20545;-75
2022/03/07 08:02:38;;;;;;;3.22;1.40;;;-1.30;99.90;;;;;;4995174;28;20076;-76
2022/03/07 08:05:04;;;;;;;3.55;1.20;;;-1.20;99.90;;;;;;5009224;28;20117;-76
2022/03/07 08:07:30;;;;;;;2.95;1.20;;;-1.00;99.90;;;;;;5031046;28;20402;-76
2022/03/07 08:09:56;;;;;;;3.55;1.50;;;-0.90;99.90;;;;;;5033134;28;20034;-76
2022/03/07 08:12:22;;;;;;;2.47;0.98;;;-0.70;99.90;;;;;;5019551;28;20033;-75
2022/03/07 08:14:48;;;;;;;3.33;1.50;;;-0.50;99.90;;;;;;5020031;28;20053;-76
2022/03/07 08:17:15;;;;;;;2.60;1.30;;;-0.30;99.90;;;;;;5019445;28;20021;-76
2022/03/07 08:19:41;;;;;;;2.78;1.30;;;-0.10;99.90;;;;;;4995525;28;20115;-76
2022/03/07 08:22:06;;;;;;;4.40;1.80;;;0.10;99.90;;;;;;5021157;28;20053;-76
2022/03/07 08:24:32;;;;;;;2.83;1.67;;;0.30;99.90;;;;;;5018071;28;20432;-76
2022/03/07 08:26:58;;;;;;;3.25;1.55;;;0.40;99.90;;;;;;5019446;28;20509;-76
2022/03/07 08:29:25;;;;;;;4.28;2.00;;;0.60;99.90;;;;;;5020239;28;20496;-76
2022/03/07 08:31:50;;;;;;;3.58;1.45;;;0.80;99.90;;;;;;5012353;28;20033;-76
2022/03/07 08:34:16;;;;;;;3.13;1.23;;;1.00;99.90;;;;;;5003436;28;20090;-76
2022/03/07 08:36:42;;;;;;;4.05;1.60;;;1.20;99.90;;;;;;5018591;28;20064;-77
2022/03/07 08:39:07;;;;;;;4.28;2.15;;;1.40;99.90;;;;;;5026120;28;20033;-76
2022/03/07 08:41:34;;;;;;;3.42;1.83;;;1.40;99.90;;;;;;5018802;28;20484;-76
2022/03/07 08:44:00;;;;;;;3.05;1.60;;;1.60;99.90;;;;;;5020718;28;20034;-76
2022/03/07 08:46:26;;;;;;;3.92;1.60;;;1.80;99.90;;;;;;5017961;28;20056;-76
2022/03/07 08:48:52;;;;;;;3.78;2.10;;;1.90;99.90;;;;;;5021771;28;20033;-76
2022/03/07 08:51:17;;;;;;;2.55;1.55;;;2.00;99.90;;;;;;5024534;28;20126;-76
2022/03/07 08:53:43;;;;;;;2.92;1.52;;;2.20;99.90;;;;;;5018047;28;20034;-76
2022/03/07 08:56:09;;;;;;;2.90;1.70;;;2.50;99.90;;;;;;5013678;28;20453;-76
2022/03/07 08:58:35;;;;;;;3.22;1.40;;;2.60;99.90;;;;;;5019907;28;20075;-77
2022/03/07 09:01:00;;;;;;;4.07;1.73;;;2.70;99.90;;;;;;5001821;28;20071;-76
2022/03/07 09:03:26;;;;;;;3.45;1.88;;;2.90;99.90;;;;;;5019423;28;20213;-75
2022/03/07 09:05:51;;;;;;;3.45;1.67;;;3.00;99.90;;;;;;5002660;28;20056;-76
2022/03/07 09:08:17;;;;;;;3.58;1.60;;;3.10;99.90;;;;;;5011227;28;20041;-76
2022/03/07 09:10:42;;;;;;;2.13;1.00;;;3.30;99.90;;;;;;5019759;28;20156;-76
2022/03/07 09:13:08;;;;;;;3.70;1.80;;;3.40;99.90;;;;;;5012227;28;20045;-78
2022/03/07 09:15:34;;;;;;;2.65;1.00;;;3.40;99.90;;;;;;5010207;28;20072;-78
2022/03/07 09:18:00;;;;;;;3.50;1.95;;;3.40;99.90;;;;;;5016300;28;20044;-77
2022/03/07 09:20:26;;;;;;;3.40;1.85;;;3.60;99.90;;;;;;4995260;28;20029;-76
2022/03/07 09:22:52;;;;;;;3.70;1.70;;;3.60;99.90;;;;;;5027857;28;20033;-76
2022/03/07 09:25:18;;;;;;;3.38;1.95;;;3.70;99.90;;;;;;5019246;28;20036;-76
2022/03/07 09:27:44;;;;;;;2.97;1.70;;;3.80;99.90;;;;;;5018179;28;20258;-76
2022/03/07 09:30:13;;;;;;;2.35;1.60;;;3.60;99.90;;;;;;5011465;28;20029;-76
2022/03/07 09:32:39;;;;;;;4.20;2.05;;;3.60;99.90;;;;;;5010955;28;20028;-76
2022/03/07 09:35:05;;;;;;;3.30;2.00;;;3.70;99.90;;;;;;5012548;28;20474;-76
2022/03/07 09:37:31;;;;;;;3.42;2.40;;;4.00;99.90;;;;;;5016839;28;20237;-76
2022/03/07 09:39:56;;;;;;;2.75;1.70;;;4.00;99.90;;;;;;5013471;28;20033;-77
2022/03/07 09:42:22;;;;;;;4.15;2.47;;;4.20;99.90;;;;;;5019368;28;20083;-76
2022/03/07 09:44:48;;;;;;;3.33;1.67;;;4.30;99.90;;;;;;5033666;28;20060;-78
2022/03/07 09:47:15;;;;;;;3.63;1.55;;;4.40;99.90;;;;;;5001530;28;20061;-76
2022/03/07 09:49:40;;;;;;;3.35;1.42;;;4.50;99.90;;;;;;5011877;28;20068;-76
2022/03/07 09:52:06;;;;;;;2.38;1.00;;;4.50;99.90;;;;;;5019898;28;20124;-76
2022/03/07 09:54:32;;;;;;;3.28;1.10;;;4.70;99.90;;;;;;5012079;28;20510;-77
2022/03/07 09:56:58;;;;;;;2.10;1.20;;;4.80;99.90;;;;;;5032935;28;20037;-76
2022/03/07 09:59:24;;;;;;;3.90;1.05;;;4.90;99.90;;;;;;5010924;28;20034;-76
2022/03/07 10:02:02;;;;;;;3.40;1.40;;;5.00;99.90;;;;;;5016286;28;20442;-76
2022/03/07 10:04:30;;;;;;;2.42;1.23;;;5.20;99.90;;;;;;5017947;28;20120;-76
2022/03/07 10:06:56;;;;;;;3.05;1.73;;;5.30;99.90;;;;;;5018180;28;20608;-77
2022/03/07 10:09:23;;;;;;;2.60;1.13;;;5.30;99.90;;;;;;5018686;28;20398;-77
2022/03/07 10:11:54;;;;;;;2.20;1.23;;;5.40;99.90;;;;;;5018835;28;20029;-76
2022/03/07 10:14:42;;;;;;;3.13;1.00;;;5.40;99.90;;;;;;4989595;28;20041;-78
2022/03/07 10:17:27;;;;;;;3.03;1.60;;;5.40;99.90;;;;;;5019572;28;20041;-77
2022/03/07 10:19:54;;;;;;;2.28;1.27;;;5.50;99.90;;;;;;5017474;28;20036;-77
2022/03/07 10:22:23;;;;;;;2.30;1.15;;;5.50;99.90;;;;;;5016159;28;20037;-78
2022/03/07 10:25:00;;;;;;;2.20;1.25;;;5.60;99.90;;;;;;4999793;28;20053;-77
2022/03/07 10:27:28;;;;;;;2.50;1.17;;;5.80;99.90;;;;;;5010371;28;20068;-78
2022/03/07 10:29:54;;;;;;;2.65;1.00;;;5.90;99.90;;;;;;5018081;28;20041;-76
2022/03/07 10:32:20;;;;;;;2.70;1.00;;;5.80;99.90;;;;;;5017734;28;20046;-77
2022/03/07 10:34:46;;;;;;;1.85;0.80;;;5.70;99.90;;;;;;5015998;28;20048;-76
2022/03/07 10:37:12;;;;;;;2.08;0.95;;;5.90;99.90;;;;;;5016981;28;20045;-76
2022/03/07 10:39:50;;;;;;;3.70;1.20;;;5.80;99.90;;;;;;5017370;28;20028;-77
2022/03/07 10:42:17;;;;;;;2.05;1.17;;;5.90;99.90;;;;;;4994086;28;20037;-77
2022/03/07 10:44:43;;;;;;;2.70;0.80;;;5.80;99.90;;;;;;5033160;28;20033;-76
2022/03/07 10:47:13;;;;;;;2.58;1.35;;;5.80;99.90;;;;;;5022542;28;20501;-77
2022/03/07 10:49:49;;;;;;;2.42;1.35;;;6.10;99.90;;;;;;5033293;28;20537;-76
2022/03/07 10:52:15;;;;;;;2.10;0.82;;;6.20;99.90;;;;;;5032632;28;20037;-77
2022/03/07 10:54:41;;;;;;;3.20;1.17;;;6.30;99.90;;;;;;5015442;28;20725;-78
2022/03/07 10:57:09;;;;;;;2.22;0.90;;;6.60;99.90;;;;;;4993417;28;20041;-77
2022/03/07 10:59:36;;;;;;;1.98;1.00;;;6.70;99.90;;;;;;5031850;28;20040;-76
2022/03/07 11:02:11;;;;;;;3.45;1.75;;;6.60;99.90;;;;;;5014432;28;20075;-76
2022/03/07 11:04:38;;;;;;;1.92;1.00;;;6.60;99.90;;;;;;5007429;28;20033;-76
2022/03/07 11:07:04;;;;;;;3.05;1.45;;;6.70;99.90;;;;;;5016077;28;20041;-76
2022/03/07 11:09:30;;;;;;;4.05;2.13;;;6.80;99.90;;;;;;5009938;28;20516;-76
2022/03/07 11:11:56;;;;;;;4.15;2.03;;;6.70;99.90;;;;;;5012943;28;20108;-76
2022/03/07 11:14:22;;;;;;;3.70;1.92;;;6.80;99.90;;;;;;5008970;28;20022;-78
2022/03/07 11:16:56;;;;;;;3.47;1.80;;;6.90;99.90;;;;;;4997907;28;20056;-77
2022/03/07 11:19:23;;;;;;;5.50;2.67;;;7.10;99.90;;;;;;5015197;28;20109;-76
2022/03/07 11:21:51;;;;;;;2.90;2.10;;;6.90;99.90;;;;;;5014288;28;20734;-77
2022/03/07 11:24:25;;;;;;;3.88;2.55;;;6.90;99.90;;;;;;4998192;28;20021;-76
2022/03/07 11:26:53;;;;;;;4.88;2.95;;;6.80;99.90;;;;;;5015271;28;20029;-76
2022/03/07 11:29:19;;;;;;;3.60;2.38;;;7.20;99.90;;;;;;5008132;28;20056;-76
2022/03/07 11:31:46;;;;;;;3.42;1.83;;;7.40;99.90;;;;;;5014348;28;20474;-77
2022/03/07 11:34:13;;;;;;;3.92;2.55;;;7.50;99.90;;;;;;4992085;28;20032;-77
2022/03/07 11:36:43;;;;;;;4.88;2.47;;;7.60;99.90;;;;;;5014442;28;20037;-76
2022/03/07 11:39:09;;;;;;;5.57;2.85;;;7.70;99.90;;;;;;4997072;28;20033;-76
2022/03/07 11:41:36;;;;;;;3.13;2.17;;;7.40;99.90;;;;;;5013714;28;20041;-76
2022/03/07 11:44:08;;;;;;;2.72;1.40;;;7.40;99.90;;;;;;5008506;28;20120;-77
2022/03/07 11:46:44;;;;;;;2.75;1.63;;;7.20;99.90;;;;;;5010119;28;20543;-76
2022/03/07 11:49:26;;;;;;;3.55;1.95;;;7.30;99.90;;;;;;4993590;28;20410;-81
2022/03/07 11:51:59;;;;;;;3.63;1.70;;;7.50;99.90;;;;;;5035915;28;20099;-77
2022/03/07 11:54:26;;;;;;;2.90;1.33;;;7.50;99.90;;;;;;5016839;28;20038;-76
2022/03/07 11:56:52;;;;;;;4.78;2.67;;;7.30;99.90;;;;;;5013407;28;20435;-76
2022/03/07 11:59:29;;;;;;;4.88;2.67;;;7.10;99.90;;;;;;5019159;28;20119;-76
2022/03/07 12:01:55;;;;;;;3.05;1.65;;;6.80;99.90;;;;;;5036128;28;20029;-78
2022/03/07 12:04:21;;;;;;;3.10;2.25;;;6.80;99.90;;;;;;4996355;28;20033;-76
2022/03/07 12:06:50;;;;;;;2.65;1.83;;;6.70;99.90;;;;;;5015188;28;20065;-77
2022/03/07 12:09:33;;;;;;;2.47;1.77;;;6.60;99.90;;;;;;5012013;28;20622;-76
2022/03/07 12:12:07;;;;;;;4.10;2.20;;;6.70;99.90;;;;;;5034482;28;20056;-76
2022/03/07 12:14:38;;;;;;;2.88;2.05;;;6.80;99.90;;;;;;4996962;28;20041;-77
2022/03/07 12:17:14;;;;;;;3.90;2.58;;;6.90;99.90;;;;;;5019020;28;20075;-76
2022/03/07 12:19:41;;;;;;;4.57;3.35;;;6.90;99.90;;;;;;5018797;28;20040;-76
2022/03/07 12:22:13;;;;;;;3.05;2.15;;;7.20;99.90;;;;;;5016761;28;20064;-76
2022/03/07 12:24:39;;;;;;;4.18;1.80;;;7.70;99.90;;;;;;5017175;28;20074;-77
2022/03/07 12:27:05;;;;;;;5.57;3.38;;;7.50;99.90;;;;;;5018405;28;20123;-77
2022/03/07 12:29:31;;;;;;;4.13;2.65;;;7.00;99.90;;;;;;5017370;28;20058;-77
2022/03/07 12:31:58;;;;;;;5.07;3.00;;;6.80;99.90;;;;;;5010331;28;20033;-77
2022/03/07 12:34:25;;;;;;;6.05;2.72;;;6.60;99.90;;;;;;5017737;28;20029;-77
2022/03/07 12:37:20;;;;;;;4.93;2.80;;;7.20;99.90;;;;;;5022883;28;20044;-77
2022/03/07 12:40:00;;;;;;;4.63;2.20;;;7.30;99.90;;;;;;5016698;28;20030;-77
2022/03/07 12:42:31;;;;;;;4.60;2.88;;;7.40;99.90;;;;;;5015453;28;20041;-77
2022/03/07 12:44:59;;;;;;;4.72;2.25;;;7.40;99.90;;;;;;4999388;28;20434;-77
2022/03/07 12:47:30;;;;;;;3.15;1.85;;;7.50;99.90;;;;;;5015991;28;20731;-78
2022/03/07 12:49:56;;;;;;;3.95;2.42;;;7.80;99.90;;;;;;5032524;28;20121;-78